Time;durP1;ratioP1;P1;durP2;ratioP2;P2;SDS_P1;SDS_P2;PMS_P1;PMS_P2;Temp;Humidity;BMP_temperature;BMP_pressure;BME280_temperature;BME280_humidity;BME280_pressure;Samples;Min_cycle;Max_cycle;Signal;HPM_P1;HPM_P2
2021/04/11 00:00:56;;;;;;;;;;;;;;;27.11;22.96;101710.22;5077332;28;728;-36
2021/04/11 00:03:22;;;;;;;;;;;;;;;27.52;22.37;101706.88;5075760;28;939;-41
2021/04/11 00:05:47;;;;;;;;;;;;;;;27.47;22.38;101707.38;5076697;28;848;-42
2021/04/11 00:08:12;;;;;;;;;;;;;;;27.41;22.92;101704.47;5077196;28;741;-42
2021/04/11 00:10:38;;;;;;;;;;;;;;;27.41;22.18;101705.28;5076845;28;744;-43
2021/04/11 00:13:04;;;;;;;;;;;;;;;27.26;23.03;101707.75;5076778;28;820;-40
2021/04/11 00:15:30;;;;;;;;;;;;;;;27.53;22.49;101705.84;5076591;28;1281;-38
2021/04/11 00:17:55;;;;;;;;;;;;;;;27.52;22.84;101709.56;5075663;28;1906;-42
2021/04/11 00:20:20;;;;;;;;;;;;;;;27.22;22.63;101715.34;5076889;28;740;-40
2021/04/11 00:22:46;;;;;;;;;;;;;;;27.36;22.92;101713.88;5076796;28;787;-42
2021/04/11 00:25:12;;;;;;;;;;;;;;;27.14;22.90;101713.44;5076129;28;851;-35
2021/04/11 00:27:37;;;;;;;;;;;;;;;27.44;22.81;101709.53;5076295;28;841;-42
2021/04/11 00:30:03;;;;;;;;;;;;;;;27.54;22.45;101715.69;5076385;28;940;-35
2021/04/11 00:32:29;;;;;;;;;;;;;;;27.50;22.03;101707.03;5075976;28;997;-42
2021/04/11 00:34:54;;;;;;;;;;;;;;;27.52;22.49;101709.56;5076977;28;718;-41
2021/04/11 00:37:19;;;;;;;;;;;;;;;27.05;22.93;101706.28;5076339;28;1979;-42
2021/04/11 00:39:45;;;;;;;;;;;;;;;27.40;22.83;101703.59;5076337;28;783;-42
2021/04/11 00:42:12;;;;;;;;;;;;;;;27.50;22.70;101711.59;5076559;28;832;-39
2021/04/11 00:44:38;;;;;;;;;;;;;;;27.53;22.25;101710.44;5076337;28;890;-42
2021/04/11 00:47:04;;;;;;;;;;;;;;;27.60;22.42;101714.16;5074535;28;974;-34
2021/04/11 00:49:48;;;;;;;;;;;;;;;27.14;22.65;101718.00;5074988;28;1076;-34
2021/04/11 00:52:14;;;;;;;;;;;;;;;27.45;22.69;101708.53;5076294;28;760;-35
2021/04/11 00:54:39;;;;;;;;;;;;;;;27.55;22.50;101708.41;5074627;28;812;-42
2021/04/11 00:57:06;;;;;;;;;;;;;;;27.49;22.45;101708.03;5075973;28;1902;-42
2021/04/11 00:59:32;;;;;;;;;;;;;;;27.51;22.38;101706.03;5076280;28;797;-34
2021/04/11 01:01:57;;;;;;;;;;;;;;;27.14;22.97;101709.91;5075438;28;963;-43
2021/04/11 01:04:22;;;;;;;;;;;;;;;27.53;22.86;101702.31;5076618;28;710;-34
2021/04/11 01:06:55;;;;;;;;;;;;;;;27.69;22.47;101701.56;5074772;28;882;-43
2021/04/11 01:09:24;;;;;;;;;;;;;;;27.58;22.32;101705.34;5074713;28;1112;-43
2021/04/11 01:11:50;;;;;;;;;;;;;;;27.51;22.73;101707.88;5074495;28;830;-39
2021/04/11 01:14:15;;;;;;;;;;;;;;;27.22;22.34;101699.16;5076164;28;957;-41
2021/04/11 01:16:41;;;;;;;;;;;;;;;27.21;22.75;101699.31;5074625;28;978;-33
2021/04/11 01:19:07;;;;;;;;;;;;;;;27.73;22.38;101705.63;5075563;28;1906;-42
2021/04/11 01:21:33;;;;;;;;;;;;;;;27.72;22.30;101698.53;5076099;28;816;-34
2021/04/11 01:24:07;;;;;;;;;;;;;;;27.56;22.49;101697.41;5075878;28;755;-43
2021/04/11 01:26:32;;;;;;;;;;;;;;;27.42;22.26;101693.50;5076245;28;748;-42
2021/04/11 01:28:57;;;;;;;;;;;;;;;27.33;22.86;101700.72;5075305;28;768;-42
2021/04/11 01:31:23;;;;;;;;;;;;;;;27.55;22.63;101693.03;5073670;28;1237;-35
2021/04/11 01:33:51;;;;;;;;;;;;;;;27.56;22.34;101696.59;5074652;28;770;-33
2021/04/11 01:36:19;;;;;;;;;;;;;;;27.39;22.87;101697.34;5074896;28;811;-42
2021/04/11 01:38:44;;;;;;;;;;;;;;;27.22;22.67;101701.00;5074234;28;1960;-39
2021/04/11 01:41:12;;;;;;;;;;;;;;;27.39;22.85;101699.22;5077909;28;760;-34
2021/04/11 01:43:37;;;;;;;;;;;;;;;27.68;22.52;101706.13;5078552;28;845;-43
2021/04/11 01:46:03;;;;;;;;;;;;;;;27.62;22.50;101707.59;5078184;28;822;-42
2021/04/11 01:48:29;;;;;;;;;;;;;;;27.56;22.34;101705.53;5079336;28;994;-35
2021/04/11 01:50:54;;;;;;;;;;;;;;;27.29;22.68;101701.19;5078093;28;831;-37
2021/04/11 01:53:19;;;;;;;;;;;;;;;27.25;23.34;101698.81;5079248;28;779;-35
2021/04/11 01:55:45;;;;;;;;;;;;;;;27.58;22.86;101703.50;5077871;28;867;-43
2021/04/11 01:58:11;;;;;;;;;;;;;;;27.61;22.43;101697.78;5079394;28;1901;-40
2021/04/11 02:00:37;;;;;;;;;;;;;;;27.30;23.00;101698.34;5077885;28;807;-42
2021/04/11 02:03:06;;;;;;;;;;;;;;;27.55;22.38;101703.84;5077890;28;951;-41
2021/04/11 02:05:31;;;;;;;;;;;;;;;27.23;23.11;101695.44;5078228;28;1032;-33
2021/04/11 02:07:57;;;;;;;;;;;;;;;27.37;22.83;101695.84;5079120;28;752;-42
2021/04/11 02:10:25;;;;;;;;;;;;;;;27.53;22.23;101696.91;5077602;28;825;-35
2021/04/11 02:12:50;;;;;;;;;;;;;;;27.35;22.50;101701.41;5077632;28;1022;-37
2021/04/11 02:15:19;;;;;;;;;;;;;;;27.32;22.93;101687.38;5078758;28;1344;-42
2021/04/11 02:17:46;;;;;;;;;;;;;;;27.07;22.96;101696.19;5087929;28;1913;-42
2021/04/11 02:20:11;;;;;;;;;;;;;;;27.45;22.83;101693.16;5079092;28;849;-33
2021/04/11 02:22:36;;;;;;;;;;;;;;;27.55;22.55;101695.72;5093457;28;814;-42
2021/04/11 02:25:02;;;;;;;;;;;;;;;27.50;22.46;101688.13;5094490;28;748;-35
2021/04/11 02:27:27;;;;;;;;;;;;;;;27.55;22.78;101684.94;5079261;28;770;-43
2021/04/11 02:29:53;;;;;;;;;;;;;;;26.93;22.79;101683.22;5078656;28;747;-33
2021/04/11 02:32:21;;;;;;;;;;;;;;;27.35;22.88;101689.72;5078420;28;1013;-34
2021/04/11 02:34:46;;;;;;;;;;;;;;;27.67;22.74;101685.47;5077667;28;812;-43
2021/04/11 02:37:38;;;;;;;;;;;;;;;27.55;22.73;101687.63;5078192;28;1961;-31
2021/04/11 02:40:05;;;;;;;;;;;;;;;27.38;23.16;101681.31;5076620;28;1161;-45
2021/04/11 02:42:31;;;;;;;;;;;;;;;27.23;22.53;101678.34;5078537;28;879;-42
2021/04/11 02:45:00;;;;;;;;;;;;;;;27.35;23.17;101681.63;5077215;28;822;-45
2021/04/11 02:47:25;;;;;;;;;;;;;;;27.57;22.42;101692.88;5078345;28;978;-45
2021/04/11 02:49:51;;;;;;;;;;;;;;;27.55;22.71;101687.63;5078334;28;784;-33
2021/04/11 02:52:21;;;;;;;;;;;;;;;27.47;22.28;101687.59;5077883;28;775;-42
2021/04/11 02:54:46;;;;;;;;;;;;;;;27.56;22.72;101686.59;5077322;28;849;-43
2021/04/11 02:57:12;;;;;;;;;;;;;;;27.18;23.22;101691.50;5076685;28;1969;-39
2021/04/11 02:59:38;;;;;;;;;;;;;;;27.36;23.11;101694.16;5077461;28;827;-43
2021/04/11 03:02:03;;;;;;;;;;;;;;;27.39;22.37;101686.53;5076557;28;1160;-43
2021/04/11 03:04:28;;;;;;;;;;;;;;;27.09;22.53;101685.22;5078401;28;833;-43
2021/04/11 03:06:55;;;;;;;;;;;;;;;26.92;23.00;101685.09;5077793;28;772;-33
2021/04/11 03:09:22;;;;;;;;;;;;;;;26.78;23.34;101690.06;5076597;28;859;-37
2021/04/11 03:11:48;;;;;;;;;;;;;;;26.32;23.53;101692.88;5076277;28;866;-43
2021/04/11 03:14:14;;;;;;;;;;;;;;;26.59;23.28;101695.66;5076170;28;1390;-34
2021/04/11 03:16:39;;;;;;;;;;;;;;;26.70;22.79;101694.53;5077494;28;1006;-43
2021/04/11 03:19:04;;;;;;;;;;;;;;;26.17;23.68;101700.66;5076429;28;1989;-41
2021/04/11 03:21:30;;;;;;;;;;;;;;;25.73;24.43;101685.19;5075788;28;832;-32
2021/04/11 03:23:55;;;;;;;;;;;;;;;25.54;24.55;101686.97;5077758;28;795;-43
2021/04/11 03:26:22;;;;;;;;;;;;;;;25.48;24.87;101685.72;5076042;28;1337;-38
2021/04/11 03:28:49;;;;;;;;;;;;;;;25.53;24.69;101691.50;5076294;28;878;-38
2021/04/11 03:31:15;;;;;;;;;;;;;;;25.51;24.45;101698.00;5077240;28;943;-36
2021/04/11 03:33:44;;;;;;;;;;;;;;;26.16;23.79;101702.50;5076127;28;863;-38
2021/04/11 03:36:10;;;;;;;;;;;;;;;26.35;23.79;101697.13;5075824;28;765;-38
2021/04/11 03:38:36;;;;;;;;;;;;;;;26.29;23.27;101707.50;5076537;28;1902;-42
2021/04/11 03:41:01;;;;;;;;;;;;;;;25.94;24.13;101703.81;5077233;28;809;-39
2021/04/11 03:43:34;;;;;;;;;;;;;;;24.37;19.70;101701.38;5076307;28;796;-32
2021/04/11 03:45:59;;;;;;;;;;;;;;;23.00;17.50;101698.03;5075183;28;820;-43
2021/04/11 03:48:28;;;;;;;;;;;;;;;21.99;17.22;101697.31;5070553;28;947;-46
2021/04/11 03:50:55;;;;;;;;;;;;;;;20.00;18.09;101692.69;5116402;28;863;-43
2021/04/11 03:53:21;;;;;;;;;;;;;;;21.38;18.12;101696.75;5099983;28;957;-34
2021/04/11 03:55:46;;;;;;;;;;;;;;;21.89;18.57;101699.91;5099966;28;793;-47
2021/04/11 03:58:19;;;;;;;;;;;;;;;22.93;17.07;101696.84;5117089;28;1906;-34
2021/04/11 04:00:44;;;;;;;;;;;;;;;23.08;16.34;101697.38;5098474;28;856;-39
2021/04/11 04:03:11;;;;;;;;;;;;;;;23.22;16.41;101701.56;5082075;28;998;-42
2021/04/11 04:05:36;;;;;;;;;;;;;;;23.25;16.41;101698.59;5059283;28;756;-35
2021/04/11 04:08:02;;;;;;;;;;;;;;;23.31;17.72;101700.75;5076692;28;796;-40
2021/04/11 04:10:28;;;;;;;;;;;;;;;23.49;18.84;101702.81;5077043;28;787;-44
2021/04/11 04:12:53;;;;;;;;;;;;;;;24.12;19.58;101703.59;5059028;28;854;-41
2021/04/11 04:15:29;;;;;;;;;;;;;;;24.49;20.12;101710.13;5075501;28;1035;-42
2021/04/11 04:17:55;;;;;;;;;;;;;;;24.72;20.26;101700.91;5058283;28;1906;-36
2021/04/11 04:20:30;;;;;;;;;;;;;;;24.56;20.94;101694.28;5075321;28;1138;-35
2021/04/11 04:23:10;;;;;;;;;;;;;;;23.96;21.49;101696.03;5078220;28;982;-39
2021/04/11 04:25:38;;;;;;;;;;;;;;;24.38;21.25;101699.50;5070399;28;840;-40
2021/04/11 04:28:06;;;;;;;;;;;;;;;24.93;21.01;101698.94;5100001;28;804;-41
2021/04/11 04:30:50;;;;;;;;;;;;;;;24.92;21.23;101702.59;5076449;28;767;-40
2021/04/11 04:33:27;;;;;;;;;;;;;;;24.11;22.20;101709.94;5075940;28;989;-38
2021/04/11 04:35:58;;;;;;;;;;;;;;;24.01;22.29;101704.53;5075934;28;1037;-39
2021/04/11 04:38:25;;;;;;;;;;;;;;;24.78;21.68;101711.97;5076263;28;1902;-38
2021/04/11 04:41:01;;;;;;;;;;;;;;;24.81;21.81;101717.06;5076395;28;797;-39
2021/04/11 04:43:28;;;;;;;;;;;;;;;24.86;21.66;101721.16;5074579;28;824;-42
2021/04/11 04:46:05;;;;;;;;;;;;;;;24.32;21.72;101722.44;5074926;28;862;-38
2021/04/11 04:48:31;;;;;;;;;;;;;;;24.27;22.13;101725.56;5075935;28;993;-43
2021/04/11 04:50:59;;;;;;;;;;;;;;;24.72;22.01;101727.81;5073836;28;832;-41
2021/04/11 04:53:43;;;;;;;;;;;;;;;25.01;21.82;101732.34;5076624;28;812;-42
2021/04/11 04:56:10;;;;;;;;;;;;;;;24.56;22.23;101737.31;5075872;28;878;-41
2021/04/11 04:58:37;;;;;;;;;;;;;;;24.15;22.73;101745.44;5077268;28;1902;-41
2021/04/11 05:01:06;;;;;;;;;;;;;;;24.21;22.69;101744.91;5077955;28;819;-39
2021/04/11 05:03:35;;;;;;;;;;;;;;;24.87;22.65;101749.75;5056715;28;950;-38
2021/04/11 05:06:19;;;;;;;;;;;;;;;25.17;22.39;101753.28;5074254;28;833;-38
2021/04/11 05:08:47;;;;;;;;;;;;;;;24.51;23.38;101755.69;5076036;28;759;-35
2021/04/11 05:11:22;;;;;;;;;;;;;;;24.35;23.24;101751.75;5075549;28;827;-41
2021/04/11 05:13:49;;;;;;;;;;;;;;;24.64;23.76;101763.53;5076596;28;919;-36
2021/04/11 05:16:19;;;;;;;;;;;;;;;24.89;23.51;101763.94;5100708;28;1127;-42
2021/04/11 05:18:45;;;;;;;;;;;;;;;24.61;23.61;101766.50;5059130;28;1981;-42
2021/04/11 05:21:11;;;;;;;;;;;;;;;24.52;24.11;101768.19;5074925;28;768;-43
2021/04/11 05:23:40;;;;;;;;;;;;;;;25.02;23.78;101769.03;5075640;28;867;-37
2021/04/11 05:26:05;;;;;;;;;;;;;;;26.47;22.12;101768.75;5058270;28;805;-39
2021/04/11 05:28:40;;;;;;;;;;;;;;;26.94;21.30;101772.19;5064857;28;820;-41
2021/04/11 05:31:12;;;;;;;;;;;;;;;27.26;21.01;101769.88;5079600;28;847;-41
2021/04/11 05:33:38;;;;;;;;;;;;;;;27.38;21.09;101770.47;5039338;28;764;-40
2021/04/11 05:36:06;;;;;;;;;;;;;;;27.57;20.85;101771.25;5058213;28;837;-40
2021/04/11 05:39:01;;;;;;;;;;;;;;;27.70;20.50;101776.22;5077957;28;1910;-38
2021/04/11 05:41:31;;;;;;;;;;;;;;;27.90;20.71;101771.41;5070622;28;1315;-38
2021/04/11 05:44:04;;;;;;;;;;;;;;;28.02;20.47;101769.25;5078124;28;825;-43
2021/04/11 05:46:32;;;;;;;;;;;;;;;28.21;20.31;101772.69;5075845;28;998;-37
2021/04/11 05:49:01;;;;;;;;;;;;;;;28.30;20.23;101771.69;5074848;28;834;-44
2021/04/11 05:51:38;;;;;;;;;;;;;;;28.20;20.55;101762.88;5073721;28;804;-38
2021/04/11 05:54:21;;;;;;;;;;;;;;;28.32;20.52;101766.13;5074564;28;824;-43
2021/04/11 05:56:48;;;;;;;;;;;;;;;28.40;20.14;101762.59;5059243;28;804;-37
2021/04/11 05:59:16;;;;;;;;;;;;;;;28.51;20.22;101773.09;5075087;28;1910;-37
2021/04/11 06:01:42;;;;;;;;;;;;;;;28.60;20.02;101761.28;5074940;28;1057;-39
2021/04/11 06:04:17;;;;;;;;;;;;;;;28.70;20.16;101771.94;5059376;28;818;-37
2021/04/11 06:07:03;;;;;;;;;;;;;;;27.42;21.32;101766.44;5059117;28;898;-39
2021/04/11 06:09:33;;;;;;;;;;;;;;;27.14;22.13;101774.72;5058940;28;1421;-37
2021/04/11 06:12:00;;;;;;;;;;;;;;;28.21;20.99;101770.81;5073930;28;1094;-40
2021/04/11 06:14:36;;;;;;;;;;;;;;;28.71;20.21;101778.19;5077946;28;1210;-36
2021/04/11 06:17:08;;;;;;;;;;;;;;;28.93;19.86;101775.81;5078448;28;1024;-38
2021/04/11 06:19:33;;;;;;;;;;;;;;;28.95;19.86;101773.78;5077383;28;1914;-36
2021/04/11 06:22:03;;;;;;;;;;;;;;;28.88;20.24;101767.38;5077328;28;800;-42
2021/04/11 06:24:47;;;;;;;;;;;;;;;29.07;19.90;101768.88;5078211;28;831;-40
2021/04/11 06:27:16;;;;;;;;;;;;;;;27.82;21.04;101772.25;5078643;28;912;-40
2021/04/11 06:30:01;;;;;;;;;;;;;;;27.07;21.95;101773.66;5078905;28;815;-41
2021/04/11 06:32:26;;;;;;;;;;;;;;;27.90;21.41;101776.81;5078427;28;1043;-40
2021/04/11 06:34:52;;;;;;;;;;;;;;;28.37;20.76;101782.72;5076962;28;823;-39
2021/04/11 06:37:19;;;;;;;;;;;;;;;28.71;20.22;101781.72;5077536;28;1902;-42
2021/04/11 06:39:45;;;;;;;;;;;;;;;28.84;20.21;101791.22;5078045;28;814;-40
2021/04/11 06:42:19;;;;;;;;;;;;;;;29.03;20.15;101797.34;5078529;28;776;-40
2021/04/11 06:44:50;;;;;;;;;;;;;;;27.92;20.98;101795.59;5078956;28;822;-42
2021/04/11 06:47:54;;;;;;;;;;;;;;;27.22;22.10;101799.09;5078447;28;969;-40
2021/04/11 06:50:19;;;;;;;;;;;;;;;28.30;21.18;101796.03;5036266;28;1200;-39
2021/04/11 06:53:05;;;;;;;;;;;;;;;28.64;20.65;101791.56;5036703;28;830;-41
2021/04/11 06:55:49;;;;;;;;;;;;;;;28.94;20.30;101801.88;5059248;28;1149;-40
2021/04/11 06:58:29;;;;;;;;;;;;;;;28.98;20.04;101800.53;5078550;28;1901;-41
2021/04/11 07:01:05;;;;;;;;;;;;;;;28.28;20.70;101803.47;5078478;28;834;-39
2021/04/11 07:03:30;;;;;;;;;;;;;;;27.47;21.90;101801.94;5076456;28;986;-39
2021/04/11 07:06:14;;;;;;;;;;;;;;;28.21;21.40;101806.00;5078380;28;727;-40
2021/04/11 07:08:58;;;;;;;;;;;;;;;28.69;20.80;101808.16;5078392;28;839;-42
2021/04/11 07:11:24;;;;;;;;;;;;;;;28.93;20.64;101809.16;5077967;28;802;-35
2021/04/11 07:14:00;;;;;;;;;;;;;;;29.16;19.99;101811.19;5078082;28;836;-37
2021/04/11 07:16:40;;;;;;;;;;;;;;;29.00;20.00;101806.66;5076476;28;962;-37
2021/04/11 07:19:06;;;;;;;;;;;;;;;27.59;21.67;101804.38;5077538;28;1918;-38
2021/04/11 07:21:37;;;;;;;;;;;;;;;27.26;22.56;101810.41;5077410;28;835;-42
2021/04/11 07:24:08;;;;;;;;;;;;;;;26.89;22.96;101809.59;5078431;28;749;-37
2021/04/11 07:26:35;;;;;;;;;;;;;;;26.78;23.03;101807.97;5077757;28;851;-43
2021/04/11 07:29:09;;;;;;;;;;;;;;;26.71;23.10;101809.63;5076869;28;830;-37
2021/04/11 07:31:35;;;;;;;;;;;;;;;26.58;23.46;101813.53;5072997;28;1040;-39
2021/04/11 07:34:19;;;;;;;;;;;;;;;26.46;23.67;101810.19;5056173;28;875;-42
2021/04/11 07:36:58;;;;;;;;;;;;;;;26.56;23.55;101814.69;5056777;28;1133;-37
2021/04/11 07:39:24;;;;;;;;;;;;;;;26.38;23.68;101813.66;5057283;28;1902;-35
2021/04/11 07:42:08;;;;;;;;;;;;;;;26.28;23.67;101811.00;5057028;28;830;-39
2021/04/11 07:44:59;;;;;;;;;;;;;;;26.26;24.01;101815.69;5056658;28;742;-35
2021/04/11 07:47:43;;;;;;;;;;;;;;;26.34;23.92;101812.25;5065361;28;1215;-33
2021/04/11 07:50:08;;;;;;;;;;;;;;;26.31;23.85;101807.16;5076384;28;1015;-32
2021/04/11 07:52:40;;;;;;;;;;;;;;;26.34;24.05;101811.44;5077421;28;775;-36
2021/04/11 07:55:20;;;;;;;;;;;;;;;26.21;24.20;101815.28;5076882;28;838;-36
2021/04/11 07:57:49;;;;;;;;;;;;;;;26.02;24.36;101813.56;5077115;28;1980;-43
2021/04/11 08:00:37;;;;;;;;;;;;;;;26.09;24.23;101817.34;5075958;28;898;-38
2021/04/11 08:03:03;;;;;;;;;;;;;;;26.58;23.56;101810.84;5052631;28;1086;-43
2021/04/11 08:05:47;;;;;;;;;;;;;;;26.22;23.87;101816.16;5077411;28;792;-43
2021/04/11 08:08:50;;;;;;;;;;;;;;;25.97;24.38;101815.88;5077250;28;764;-38
2021/04/11 08:11:21;;;;;;;;;;;;;;;26.24;24.07;101824.94;5034213;28;1366;-39
2021/04/11 08:13:56;;;;;;;;;;;;;;;25.99;24.38;101814.69;5035172;28;958;-38
2021/04/11 08:16:30;;;;;;;;;;;;;;;25.86;24.39;101816.91;5057425;28;1328;-33
2021/04/11 08:19:14;;;;;;;;;;;;;;;26.12;24.21;101827.00;5076045;28;1909;-33
2021/04/11 08:21:49;;;;;;;;;;;;;;;26.27;24.06;101832.75;5076700;28;782;-35
2021/04/11 08:24:21;;;;;;;;;;;;;;;26.22;24.11;101833.19;5076302;28;1129;-33
2021/04/11 08:26:46;;;;;;;;;;;;;;;27.10;23.15;101830.03;5076325;28;817;-35
2021/04/11 08:29:20;;;;;;;;;;;;;;;27.65;22.14;101824.50;5076801;28;771;-37
2021/04/11 08:31:48;;;;;;;;;;;;;;;26.75;23.18;101821.78;5076225;28;985;-41
2021/04/11 08:34:14;;;;;;;;;;;;;;;26.52;23.54;101820.41;5076603;28;767;-37
2021/04/11 08:36:39;;;;;;;;;;;;;;;26.16;24.09;101821.16;5076932;28;894;-39
2021/04/11 08:39:37;;;;;;;;;;;;;;;26.11;23.49;101815.34;5076262;28;1935;-40
2021/04/11 08:42:05;;;;;;;;;;;;;;;26.07;24.06;101813.13;5053807;28;1106;-40
2021/04/11 08:45:05;;;;;;;;;;;;;;;25.98;24.41;101813.00;5077115;28;783;-38
2021/04/11 08:47:33;;;;;;;;;;;;;;;25.90;24.43;101812.91;5033600;28;1140;-43
2021/04/11 08:50:05;;;;;;;;;;;;;;;26.09;24.38;101808.44;5068748;28;1061;-37
2021/04/11 08:52:34;;;;;;;;;;;;;;;25.93;24.29;101812.59;5075569;28;724;-39
2021/04/11 08:55:19;;;;;;;;;;;;;;;25.88;24.18;101812.19;5076309;28;751;-44
2021/04/11 08:58:03;;;;;;;;;;;;;;;26.08;24.13;101812.09;5068574;28;1913;-38
2021/04/11 09:00:34;;;;;;;;;;;;;;;25.66;24.39;101808.88;5076307;28;764;-39
2021/04/11 09:03:12;;;;;;;;;;;;;;;25.48;24.99;101815.00;5075223;28;977;-38
2021/04/11 09:05:50;;;;;;;;;;;;;;;25.62;24.83;101808.31;5076653;28;832;-34
2021/04/11 09:08:18;;;;;;;;;;;;;;;25.65;24.64;101809.88;5077017;28;743;-38
2021/04/11 09:11:02;;;;;;;;;;;;;;;25.49;24.91;101811.31;5075373;28;800;-38
2021/04/11 09:13:37;;;;;;;;;;;;;;;25.72;24.48;101807.44;5076373;28;764;-37
2021/04/11 09:16:02;;;;;;;;;;;;;;;25.71;24.60;101806.59;5093595;28;1182;-40
2021/04/11 09:18:33;;;;;;;;;;;;;;;25.60;24.54;101804.06;5075846;28;1891;-39
2021/04/11 09:21:17;;;;;;;;;;;;;;;25.89;24.32;101795.88;5074966;28;842;-42
2021/04/11 09:23:42;;;;;;;;;;;;;;;26.36;23.73;101796.78;5076212;28;870;-42
2021/04/11 09:26:17;;;;;;;;;;;;;;;26.47;23.39;101801.13;5076122;28;1689;-40
2021/04/11 09:28:42;;;;;;;;;;;;;;;26.37;23.68;101803.91;5075054;28;819;-40
2021/04/11 09:31:08;;;;;;;;;;;;;;;26.69;23.29;101807.06;5075950;28;946;-36
2021/04/11 09:33:33;;;;;;;;;;;;;;;26.68;23.25;101805.34;5075802;28;938;-37
2021/04/11 09:36:06;;;;;;;;;;;;;;;26.57;23.20;101803.75;5076076;28;776;-37
2021/04/11 09:38:43;;;;;;;;;;;;;;;26.85;22.86;101792.88;5075256;28;1910;-33
2021/04/11 09:41:28;;;;;;;;;;;;;;;27.04;22.72;101804.53;5075119;28;774;-40
2021/04/11 09:43:53;;;;;;;;;;;;;;;26.74;22.71;101793.94;5075722;28;799;-42
2021/04/11 09:46:32;;;;;;;;;;;;;;;26.44;23.09;101792.50;5075737;28;947;-42
2021/04/11 09:49:06;;;;;;;;;;;;;;;26.49;22.98;101800.97;5074872;28;830;-43
2021/04/11 09:51:47;;;;;;;;;;;;;;;26.25;23.49;101800.53;5076163;28;756;-39
2021/04/11 09:54:18;;;;;;;;;;;;;;;26.05;23.74;101805.19;5075820;28;890;-43
2021/04/11 09:57:01;;;;;;;;;;;;;;;26.28;23.05;101800.22;5075915;28;823;-39
2021/04/11 09:59:38;;;;;;;;;;;;;;;26.04;23.62;101798.09;5075926;28;1905;-43
2021/04/11 10:02:22;;;;;;;;;;;;;;;25.80;23.60;101794.09;5077028;28;990;-42
2021/04/11 10:05:06;;;;;;;;;;;;;;;26.31;22.97;101798.22;5079457;28;760;-38
2021/04/11 10:07:33;;;;;;;;;;;;;;;26.21;23.37;101796.41;5079800;28;808;-39
2021/04/11 10:10:02;;;;;;;;;;;;;;;26.07;23.76;101796.94;5078014;28;795;-37
2021/04/11 10:12:47;;;;;;;;;;;;;;;26.34;23.23;101793.38;5078505;28;766;-36
2021/04/11 10:15:18;;;;;;;;;;;;;;;26.20;23.49;101791.19;5060822;28;1207;-40
2021/04/11 10:17:53;;;;;;;;;;;;;;;26.08;23.32;101798.63;5078307;28;1914;-35
2021/04/11 10:20:18;;;;;;;;;;;;;;;26.35;23.01;101789.69;5079344;28;750;-34
2021/04/11 10:22:46;;;;;;;;;;;;;;;26.37;22.79;101793.09;5079059;28;561;-37
2021/04/11 10:25:12;;;;;;;;;;;;;;;26.13;23.31;101799.03;5078685;28;829;-36
2021/04/11 10:27:40;;;;;;;;;;;;;;;26.16;22.98;101796.03;5078991;28;1441;-38
2021/04/11 10:30:09;;;;;;;;;;;;;;;26.20;23.35;101800.13;5077839;28;811;-35
2021/04/11 10:32:40;;;;;;;;;;;;;;;26.04;23.72;101798.94;5076563;28;1013;-36
2021/04/11 10:35:05;;;;;;;;;;;;;;;25.96;23.49;101798.81;5077334;28;816;-38
2021/04/11 10:37:39;;;;;;;;;;;;;;;25.93;23.92;101796.44;5078437;28;1905;-36
2021/04/11 10:40:04;;;;;;;;;;;;;;;25.74;23.84;101795.50;5076808;28;1029;-43
2021/04/11 10:42:32;;;;;;;;;;;;;;;25.92;23.56;101800.13;5078939;28;763;-36
2021/04/11 10:45:20;;;;;;;;;;;;;;;26.42;22.87;101792.63;5079080;28;735;-43
2021/04/11 10:47:58;;;;;;;;;;;;;;;26.10;23.57;101786.69;5051953;28;1032;-37
2021/04/11 10:50:31;;;;;;;;;;;;;;;25.96;23.61;101793.44;5078757;28;788;-39
2021/04/11 10:52:57;;;;;;;;;;;;;;;26.04;23.58;101793.53;5060512;28;729;-36
2021/04/11 10:55:25;;;;;;;;;;;;;;;26.00;23.64;101800.25;5078726;28;835;-37
2021/04/11 10:57:57;;;;;;;;;;;;;;;25.93;23.66;101791.03;5060395;28;1901;-35
2021/04/11 11:00:32;;;;;;;;;;;;;;;26.13;23.30;101790.94;5077958;28;811;-42
2021/04/11 11:03:00;;;;;;;;;;;;;;;26.07;23.37;101795.09;5078034;28;1001;-43
2021/04/11 11:05:26;;;;;;;;;;;;;;;25.99;23.42;101790.44;5078431;28;903;-42
2021/04/11 11:07:55;;;;;;;;;;;;;;;25.96;23.60;101793.44;5076441;28;774;-36
2021/04/11 11:10:39;;;;;;;;;;;;;;;26.00;23.72;101788.59;5076828;28;1146;-37
2021/04/11 11:13:22;;;;;;;;;;;;;;;25.97;23.66;101787.06;5077945;28;748;-34
2021/04/11 11:15:48;;;;;;;;;;;;;;;26.21;23.10;101785.63;5077498;28;1079;-36
2021/04/11 11:18:24;;;;;;;;;;;;;;;26.28;23.33;101783.19;5077691;28;1968;-42
2021/04/11 11:21:03;;;;;;;;;;;;;;;26.13;23.69;101770.22;5076510;28;831;-40
2021/04/11 11:23:47;;;;;;;;;;;;;;;26.27;23.51;101765.31;5076930;28;812;-36
2021/04/11 11:26:24;;;;;;;;;;;;;;;26.19;23.67;101763.38;5078096;28;756;-38
2021/04/11 11:29:08;;;;;;;;;;;;;;;26.06;23.57;101768.28;5076536;28;776;-34
2021/04/11 11:31:52;;;;;;;;;;;;;;;26.30;23.49;101756.91;5076988;28;954;-39
2021/04/11 11:34:24;;;;;;;;;;;;;;;26.24;23.42;101761.06;5076865;28;867;-41
2021/04/11 11:37:09;;;;;;;;;;;;;;;26.27;23.58;101758.06;5077680;28;810;-35
2021/04/11 11:39:41;;;;;;;;;;;;;;;26.39;23.39;101742.53;5073094;28;1897;-38
2021/04/11 11:42:13;;;;;;;;;;;;;;;26.34;23.66;101749.41;5076450;28;782;-35
2021/04/11 11:44:56;;;;;;;;;;;;;;;26.18;23.55;101748.19;5077052;28;812;-35
2021/04/11 11:47:26;;;;;;;;;;;;;;;26.33;23.43;101743.13;5077187;28;1093;-41
2021/04/11 11:49:55;;;;;;;;;;;;;;;26.28;23.42;101743.56;5071181;28;987;-39
2021/04/11 11:52:39;;;;;;;;;;;;;;;26.16;23.91;101737.56;5098810;28;867;-42
2021/04/11 11:55:24;;;;;;;;;;;;;;;26.39;23.41;101733.59;5077290;28;885;-39
2021/04/11 11:57:50;;;;;;;;;;;;;;;26.12;23.98;101732.63;5073222;28;1951;-41
2021/04/11 12:00:23;;;;;;;;;;;;;;;26.17;23.85;101733.84;5076872;28;834;-40
2021/04/11 12:03:02;;;;;;;;;;;;;;;26.07;23.98;101730.38;5067797;28;821;-42
2021/04/11 12:05:31;;;;;;;;;;;;;;;25.96;24.37;101726.03;5075356;28;876;-38
2021/04/11 12:08:05;;;;;;;;;;;;;;;26.14;24.05;101728.75;5074335;28;843;-41
2021/04/11 12:10:31;;;;;;;;;;;;;;;25.94;24.24;101725.38;5076548;28;862;-40
2021/04/11 12:12:59;;;;;;;;;;;;;;;25.80;24.47;101718.63;5076049;28;782;-36
2021/04/11 12:15:25;;;;;;;;;;;;;;;25.93;24.54;101723.66;5076413;28;1171;-41
2021/04/11 12:17:50;;;;;;;;;;;;;;;25.97;24.38;101714.28;5076537;28;1965;-42
2021/04/11 12:20:16;;;;;;;;;;;;;;;25.83;24.60;101718.31;5076384;28;826;-41
2021/04/11 12:22:42;;;;;;;;;;;;;;;25.86;24.53;101712.63;5075950;28;747;-42
2021/04/11 12:25:07;;;;;;;;;;;;;;;25.95;24.30;101712.72;5076270;28;847;-39
2021/04/11 12:27:33;;;;;;;;;;;;;;;26.00;24.24;101711.28;5077046;28;795;-43
2021/04/11 12:30:00;;;;;;;;;;;;;;;25.95;24.37;101710.00;5076421;28;804;-42
2021/04/11 12:32:34;;;;;;;;;;;;;;;26.09;24.22;101708.66;5076206;28;954;-39
2021/04/11 12:35:05;;;;;;;;;;;;;;;25.78;24.49;101707.13;5076599;28;812;-37
2021/04/11 12:37:32;;;;;;;;;;;;;;;25.87;24.50;101708.94;5075821;28;1897;-41
2021/04/11 12:40:07;;;;;;;;;;;;;;;26.25;23.87;101702.56;5077059;28;824;-37
2021/04/11 12:42:38;;;;;;;;;;;;;;;26.22;24.05;101709.13;5075927;28;818;-39
2021/04/11 12:45:09;;;;;;;;;;;;;;;26.01;24.38;101698.63;5086556;28;864;-40
2021/04/11 12:47:44;;;;;;;;;;;;;;;26.19;24.07;101698.66;5092526;28;914;-34
2021/04/11 12:50:12;;;;;;;;;;;;;;;26.02;24.40;101695.78;5076601;28;752;-38
2021/04/11 12:52:39;;;;;;;;;;;;;;;26.04;24.46;101690.25;5057943;28;742;-35
2021/04/11 12:55:20;;;;;;;;;;;;;;;26.10;24.23;101694.16;5076704;28;828;-42
2021/04/11 12:58:06;;;;;;;;;;;;;;;25.94;24.68;101689.47;5058353;28;1906;-37
2021/04/11 13:00:35;;;;;;;;;;;;;;;26.10;24.30;101686.06;5043339;28;1187;-42
2021/04/11 13:03:06;;;;;;;;;;;;;;;26.00;24.32;101689.69;5058527;28;959;-37
2021/04/11 13:05:31;;;;;;;;;;;;;;;25.90;24.62;101688.91;5076248;28;784;-38
2021/04/11 13:08:17;;;;;;;;;;;;;;;25.99;24.39;101677.19;5076265;28;949;-37
2021/04/11 13:10:45;;;;;;;;;;;;;;;26.01;24.62;101674.34;5075905;28;1422;-41
2021/04/11 13:13:11;;;;;;;;;;;;;;;25.88;24.65;101677.44;5076187;28;815;-36